createdAt,value
2019-03-19T00:02:03.441Z,4.67
2019-03-19T00:04:31.777Z,5.47
2019-03-19T00:07:00.052Z,5.33
2019-03-19T00:09:28.355Z,5.80
2019-03-19T00:11:57.938Z,5.30
2019-03-19T00:14:26.331Z,5.27
2019-03-19T00:16:54.642Z,4.97
2019-03-19T00:19:22.965Z,4.80
2019-03-19T00:21:51.386Z,4.10
2019-03-19T00:24:19.655Z,5.17
2019-03-19T00:26:47.952Z,4.60
2019-03-19T00:29:16.290Z,4.77
2019-03-19T00:31:44.617Z,4.57
2019-03-19T00:34:12.907Z,5.50
2019-03-19T00:36:41.168Z,5.77
2019-03-19T00:39:09.471Z,5.90
2019-03-19T00:41:37.780Z,6.13
2019-03-19T00:44:06.082Z,5.83
2019-03-19T00:46:34.344Z,5.70
2019-03-19T00:49:02.624Z,5.23
2019-03-19T00:51:30.899Z,5.50
2019-03-19T00:53:59.211Z,6.03
2019-03-19T00:56:27.463Z,5.67
2019-03-19T00:58:55.770Z,5.53
2019-03-19T01:01:24.049Z,5.80
2019-03-19T01:03:52.402Z,5.87
2019-03-19T01:06:20.706Z,5.87
2019-03-19T01:08:49.061Z,5.27
2019-03-19T01:11:17.364Z,4.83
2019-03-19T01:13:45.697Z,4.60
2019-03-19T01:16:13.951Z,5.10
2019-03-19T01:18:42.251Z,6.00
2019-03-19T01:21:10.516Z,6.30
2019-03-19T01:23:38.895Z,6.70
2019-03-19T01:26:07.169Z,6.07
2019-03-19T01:28:35.419Z,5.60
2019-03-19T01:31:03.750Z,5.37
2019-03-19T01:33:32.025Z,6.47
2019-03-19T01:36:00.290Z,7.10
2019-03-19T01:38:28.555Z,5.57
2019-03-19T01:40:56.847Z,6.10
2019-03-19T01:43:25.110Z,5.30
2019-03-19T01:45:53.405Z,6.70
2019-03-19T01:48:21.739Z,6.70
2019-03-19T01:50:50.031Z,6.03
2019-03-19T01:53:18.431Z,5.83
2019-03-19T01:55:46.714Z,5.27
2019-03-19T01:58:14.974Z,4.73
2019-03-19T02:00:43.264Z,5.63
2019-03-19T02:03:11.651Z,5.90
2019-03-19T02:05:39.950Z,5.80
2019-03-19T02:08:08.207Z,5.60
2019-03-19T02:10:36.493Z,5.90
2019-03-19T02:13:04.736Z,6.03
2019-03-19T02:15:33.047Z,6.20
2019-03-19T02:18:01.388Z,5.80
2019-03-19T02:20:29.721Z,5.43
2019-03-19T02:22:58.034Z,5.83
2019-03-19T02:25:26.322Z,4.60
2019-03-19T02:27:54.585Z,5.87
2019-03-19T02:30:22.851Z,6.70
2019-03-19T02:32:51.151Z,6.03
2019-03-19T02:35:19.425Z,6.40
2019-03-19T02:37:47.719Z,5.73
2019-03-19T02:40:16.725Z,6.60
2019-03-19T02:42:45.137Z,6.10
2019-03-19T02:45:14.394Z,6.97
2019-03-19T02:47:42.706Z,6.30
2019-03-19T02:50:16.396Z,6.60
2019-03-19T02:52:44.695Z,5.53
2019-03-19T02:55:13.012Z,6.20
2019-03-19T02:57:41.351Z,5.90
2019-03-19T03:00:15.114Z,5.70
2019-03-19T03:02:43.483Z,6.00
2019-03-19T03:05:15.767Z,6.13
2019-03-19T03:07:44.079Z,6.10
2019-03-19T03:10:12.827Z,6.80
2019-03-19T03:12:41.115Z,6.80
2019-03-19T03:15:15.553Z,6.10
2019-03-19T03:17:43.903Z,6.03
2019-03-19T03:20:13.333Z,6.50
2019-03-19T03:22:41.691Z,5.83
2019-03-19T03:25:11.471Z,6.43
2019-03-19T03:27:39.856Z,6.20
2019-03-19T03:30:19.425Z,6.17
2019-03-19T03:32:47.739Z,5.83
2019-03-19T03:35:16.080Z,6.47
2019-03-19T03:37:44.362Z,6.17
2019-03-19T03:40:14.645Z,6.07
2019-03-19T03:42:43.517Z,6.10
2019-03-19T03:45:13.106Z,6.03
2019-03-19T03:47:41.370Z,6.20
2019-03-19T03:50:12.333Z,6.70
2019-03-19T03:52:40.596Z,5.73
2019-03-19T03:55:10.759Z,6.10
2019-03-19T03:57:39.106Z,6.37
2019-03-19T04:00:13.429Z,6.50
2019-03-19T04:02:44.595Z,6.70
2019-03-19T04:05:11.740Z,6.00
2019-03-19T04:07:40.113Z,5.97
2019-03-19T04:10:17.167Z,6.63
2019-03-19T04:12:45.644Z,6.77
2019-03-19T04:15:16.096Z,6.87
2019-03-19T04:17:44.404Z,6.90
2019-03-19T04:20:13.505Z,6.67
2019-03-19T04:22:41.751Z,6.53
2019-03-19T04:25:10.604Z,6.67
2019-03-19T04:27:40.718Z,6.83
2019-03-19T04:30:14.250Z,6.63
2019-03-19T04:32:42.545Z,6.47
2019-03-19T04:35:11.104Z,6.23
2019-03-19T04:37:39.439Z,7.03
2019-03-19T04:40:15.474Z,6.37
2019-03-19T04:42:44.096Z,6.83
2019-03-19T04:45:13.389Z,6.40
2019-03-19T04:47:41.661Z,6.93
2019-03-19T04:50:14.370Z,6.33
2019-03-19T04:52:42.652Z,6.77
2019-03-19T04:55:14.333Z,6.20
2019-03-19T04:57:42.614Z,6.43
2019-03-19T05:00:14.856Z,6.67
2019-03-19T05:02:43.173Z,5.87
2019-03-19T05:05:13.123Z,6.87
2019-03-19T05:07:41.395Z,6.63
2019-03-19T05:10:14.552Z,6.03
2019-03-19T05:12:42.971Z,6.50
2019-03-19T05:15:11.231Z,6.50
2019-03-19T05:17:39.529Z,7.87
2019-03-19T05:20:10.179Z,7.80
2019-03-19T05:22:38.476Z,7.83
2019-03-19T05:25:07.579Z,7.27
2019-03-19T05:27:37.618Z,7.00
2019-03-19T05:30:14.131Z,5.97
2019-03-19T05:32:42.425Z,6.47
2019-03-19T05:35:10.704Z,6.10
2019-03-19T05:37:38.970Z,6.87
2019-03-19T05:40:10.495Z,7.90
2019-03-19T05:42:38.891Z,6.80
2019-03-19T05:45:12.811Z,7.03
2019-03-19T05:47:41.179Z,6.57
2019-03-19T05:50:18.816Z,7.20
2019-03-19T05:52:48.481Z,7.53
2019-03-19T05:55:17.008Z,10.43
2019-03-19T05:57:50.024Z,8.60
2019-03-19T06:00:19.118Z,8.37
2019-03-19T06:02:47.451Z,8.47
2019-03-19T06:05:15.826Z,7.93
2019-03-19T06:07:44.155Z,8.20
2019-03-19T06:10:13.428Z,7.80
2019-03-19T06:12:41.694Z,7.33
2019-03-19T06:15:14.187Z,7.20
2019-03-19T06:17:42.528Z,8.00
2019-03-19T06:20:19.913Z,8.17
2019-03-19T06:22:48.204Z,8.13
2019-03-19T06:25:16.564Z,9.33
2019-03-19T06:27:44.918Z,9.10
2019-03-19T06:30:20.472Z,8.40
2019-03-19T06:32:48.792Z,9.53
2019-03-19T06:35:17.155Z,8.20
2019-03-19T06:37:45.500Z,7.07
2019-03-19T06:40:17.655Z,7.03
2019-03-19T06:42:45.965Z,7.93
2019-03-19T06:45:16.304Z,7.10
2019-03-19T06:47:44.705Z,7.00
2019-03-19T06:50:14.391Z,6.90
2019-03-19T06:52:42.723Z,6.53
2019-03-19T06:55:12.438Z,5.93
2019-03-19T06:57:40.709Z,7.90
2019-03-19T07:00:23.085Z,5.93
2019-03-19T07:02:51.435Z,7.10
2019-03-19T07:05:20.297Z,5.97
2019-03-19T07:07:48.576Z,6.50
2019-03-19T07:10:17.670Z,7.27
2019-03-19T07:12:46.046Z,7.77
2019-03-19T07:15:21.352Z,6.43
2019-03-19T07:17:49.679Z,6.27
2019-03-19T07:20:21.234Z,6.07
2019-03-19T07:22:49.497Z,6.10
2019-03-19T07:25:17.783Z,6.00
2019-03-19T07:27:46.045Z,7.57
2019-03-19T07:30:16.750Z,8.00
2019-03-19T07:32:45.058Z,7.17
2019-03-19T07:35:13.403Z,7.70
2019-03-19T07:37:41.769Z,6.97
2019-03-19T07:40:14.004Z,5.73
2019-03-19T07:42:42.464Z,4.83
2019-03-19T07:45:22.943Z,5.07
2019-03-19T07:47:51.248Z,4.77
2019-03-19T07:50:23.030Z,4.97
2019-03-19T07:52:51.335Z,6.43
2019-03-19T07:55:19.626Z,4.80
2019-03-19T07:57:47.903Z,4.77
2019-03-19T08:00:17.076Z,4.30
2019-03-19T08:02:45.418Z,4.83
2019-03-19T08:05:13.874Z,4.83
2019-03-19T08:07:42.227Z,5.20
2019-03-19T08:10:12.701Z,6.50
2019-03-19T08:12:40.999Z,6.70
2019-03-19T08:15:11.490Z,4.53
2019-03-19T08:17:39.807Z,4.87
2019-03-19T08:20:11.390Z,4.03
2019-03-19T08:22:39.684Z,4.50
2019-03-19T08:25:10.784Z,4.00
2019-03-19T08:27:39.039Z,5.63
2019-03-19T08:30:18.479Z,4.70
2019-03-19T08:32:46.803Z,4.33
2019-03-19T08:35:15.106Z,4.20
2019-03-19T08:37:43.382Z,3.70
2019-03-19T08:40:20.600Z,3.67
2019-03-19T08:42:48.852Z,3.20
2019-03-19T08:45:22.189Z,3.33
2019-03-19T08:47:50.464Z,3.63
2019-03-19T08:50:23.105Z,3.07
2019-03-19T08:52:51.361Z,3.00
2019-03-19T08:55:19.714Z,3.53
2019-03-19T08:57:47.997Z,3.20
2019-03-19T09:00:20.978Z,2.93
2019-03-19T09:02:49.259Z,2.60
2019-03-19T09:05:17.600Z,3.40
2019-03-19T09:07:45.873Z,3.03
2019-03-19T09:10:17.895Z,3.20
2019-03-19T09:12:48.405Z,3.60
2019-03-19T09:15:21.063Z,3.27
2019-03-19T09:17:49.391Z,2.80
2019-03-19T09:20:18.228Z,2.77
2019-03-19T09:22:46.525Z,3.43
2019-03-19T09:25:14.827Z,3.07
2019-03-19T09:27:43.122Z,2.53
2019-03-19T09:30:14.179Z,2.53
2019-03-19T09:32:42.411Z,2.97
2019-03-19T09:35:10.767Z,2.23
2019-03-19T09:37:44.460Z,2.00
2019-03-19T09:40:14.289Z,2.63
2019-03-19T09:42:42.584Z,2.00
2019-03-19T09:45:11.608Z,2.17
2019-03-19T09:47:39.850Z,2.27
2019-03-19T09:50:11.313Z,2.80
2019-03-19T09:52:39.637Z,1.83
2019-03-19T09:55:12.869Z,1.77
2019-03-19T09:57:41.146Z,1.73
2019-03-19T10:00:17.906Z,1.20
2019-03-19T10:02:46.189Z,2.00
2019-03-19T10:05:14.449Z,1.93
2019-03-19T10:07:42.733Z,1.87
2019-03-19T10:10:13.231Z,1.57
2019-03-19T10:12:41.510Z,1.70
2019-03-19T10:15:09.933Z,1.70
2019-03-19T10:17:38.463Z,1.70
2019-03-19T10:20:10.281Z,1.37
2019-03-19T10:22:38.569Z,2.10
2019-03-19T10:25:10.095Z,2.13
2019-03-19T10:27:38.473Z,1.20
2019-03-19T10:30:13.261Z,1.33
2019-03-19T10:32:41.594Z,1.47
2019-03-19T10:35:09.876Z,1.10
2019-03-19T10:37:38.179Z,1.20
2019-03-19T10:40:08.310Z,1.40
2019-03-19T10:42:36.668Z,1.50
2019-03-19T10:45:08.186Z,1.80
2019-03-19T10:47:36.480Z,1.70
2019-03-19T10:50:08.014Z,1.50
2019-03-19T10:52:36.259Z,1.43
2019-03-19T10:55:04.905Z,1.60
2019-03-19T10:57:33.148Z,1.80
2019-03-19T11:00:11.111Z,1.83
2019-03-19T11:02:39.417Z,1.40
2019-03-19T11:05:10.479Z,1.30
2019-03-19T11:07:38.806Z,1.50
2019-03-19T11:10:13.159Z,1.27
2019-03-19T11:12:41.428Z,1.47
2019-03-19T11:15:15.485Z,1.63
2019-03-19T11:17:43.764Z,1.60
2019-03-19T11:20:18.698Z,1.90
2019-03-19T11:22:47.028Z,1.80
2019-03-19T11:25:26.198Z,1.47
2019-03-19T11:27:54.468Z,1.93
2019-03-19T11:30:25.170Z,1.60
2019-03-19T11:32:53.429Z,1.70
2019-03-19T11:35:21.781Z,1.53
2019-03-19T11:37:50.221Z,1.47
2019-03-19T11:40:19.365Z,1.60
2019-03-19T11:42:47.697Z,1.60
2019-03-19T11:45:20.765Z,1.67
2019-03-19T11:47:49.084Z,1.43
2019-03-19T11:50:21.992Z,1.50
2019-03-19T11:52:50.274Z,1.20
2019-03-19T11:55:18.633Z,1.60
2019-03-19T11:57:46.903Z,1.57
2019-03-19T12:00:25.565Z,1.90
2019-03-19T12:02:53.837Z,1.73
2019-03-19T12:05:22.119Z,2.33
2019-03-19T12:07:50.424Z,1.73
2019-03-19T12:10:18.674Z,1.80
2019-03-19T12:12:46.963Z,2.67
2019-03-19T12:15:15.233Z,1.90
2019-03-19T12:17:43.515Z,2.03
2019-03-19T12:20:13.202Z,2.17
2019-03-19T12:22:41.545Z,1.83
2019-03-19T12:25:10.844Z,2.13
2019-03-19T12:27:39.126Z,1.87
2019-03-19T12:30:22.233Z,2.00
2019-03-19T12:32:45.799Z,2.20
2019-03-19T12:35:14.250Z,1.60
2019-03-19T12:37:42.531Z,1.50
2019-03-19T12:40:18.563Z,1.97
2019-03-19T12:42:47.041Z,1.67
2019-03-19T12:45:17.407Z,1.67
2019-03-19T12:47:45.696Z,1.70
2019-03-19T12:50:21.230Z,1.80
2019-03-19T12:52:49.579Z,1.80
2019-03-19T12:55:17.840Z,1.70
2019-03-19T12:57:46.153Z,1.60
2019-03-19T13:00:16.415Z,1.80
2019-03-19T13:02:44.721Z,1.57
2019-03-19T13:05:12.999Z,1.90
2019-03-19T13:07:41.396Z,2.15
2019-03-19T13:10:17.359Z,2.10
2019-03-19T13:12:45.687Z,2.15
2019-03-19T13:15:19.035Z,1.87
2019-03-19T13:17:46.594Z,2.30
2019-03-19T13:20:15.944Z,1.90
2019-03-19T13:22:44.234Z,1.87
2019-03-19T13:25:20.646Z,2.40
2019-03-19T13:27:49.015Z,2.62
2019-03-19T13:30:22.569Z,2.10
2019-03-19T13:32:50.924Z,2.62
2019-03-19T13:35:19.225Z,2.33
2019-03-19T13:37:47.545Z,2.25
2019-03-19T13:40:17.755Z,2.23
2019-03-19T13:42:46.065Z,2.20
2019-03-19T13:45:17.658Z,1.83
2019-03-19T13:47:45.939Z,2.53
2019-03-19T13:50:15.578Z,2.10
2019-03-19T13:52:43.870Z,1.73
2019-03-19T13:55:16.373Z,2.20
2019-03-19T13:57:44.773Z,1.80
2019-03-19T14:00:15.066Z,2.40
2019-03-19T14:02:43.410Z,2.10
2019-03-19T14:05:12.430Z,2.40
2019-03-19T14:07:40.714Z,2.37
2019-03-19T14:10:18.802Z,2.27
2019-03-19T14:12:47.090Z,2.30
2019-03-19T14:15:20.418Z,2.52
2019-03-19T14:17:48.664Z,2.92
2019-03-19T14:20:17.088Z,2.25
2019-03-19T14:22:45.807Z,2.52
2019-03-19T14:25:14.968Z,2.00
2019-03-19T14:27:43.564Z,2.62
2019-03-19T14:30:16.909Z,2.67
2019-03-19T14:32:45.245Z,2.50
2019-03-19T14:35:13.550Z,2.50
2019-03-19T14:37:41.964Z,2.57
2019-03-19T14:40:18.231Z,2.50
2019-03-19T14:42:46.528Z,2.40
2019-03-19T14:45:15.878Z,2.40
2019-03-19T14:47:44.177Z,2.40
2019-03-19T14:50:14.480Z,2.33
2019-03-19T14:52:43.876Z,2.10
2019-03-19T14:55:12.434Z,2.23
2019-03-19T14:57:40.767Z,1.87
2019-03-19T15:00:12.216Z,2.40
2019-03-19T15:02:40.586Z,1.97
2019-03-19T15:05:10.176Z,2.03
2019-03-19T15:07:38.603Z,2.43
2019-03-19T15:10:10.094Z,1.73
2019-03-19T15:12:38.488Z,2.27
2019-03-19T15:15:09.862Z,2.97
2019-03-19T15:17:38.211Z,2.00
2019-03-19T15:20:12.592Z,2.27
2019-03-19T15:22:40.950Z,2.27
2019-03-19T15:25:09.394Z,2.37
2019-03-19T15:27:37.671Z,2.20
2019-03-19T15:30:08.676Z,2.13
2019-03-19T15:32:37.024Z,2.47
2019-03-19T15:35:07.508Z,1.90
2019-03-19T15:37:36.760Z,2.00
2019-03-19T15:40:08.314Z,2.10
2019-03-19T15:42:36.625Z,2.10
2019-03-19T15:45:07.853Z,2.23
2019-03-19T15:47:36.138Z,2.10
2019-03-19T15:50:07.610Z,2.53
2019-03-19T15:52:35.974Z,2.30
2019-03-19T15:55:05.431Z,2.30
2019-03-19T15:57:33.783Z,2.00
2019-03-19T16:00:02.074Z,2.10
2019-03-19T16:02:30.436Z,2.43
2019-03-19T16:04:58.848Z,2.23
2019-03-19T16:07:27.113Z,2.03
2019-03-19T16:09:55.463Z,1.80
2019-03-19T16:12:23.863Z,2.20
2019-03-19T16:14:52.253Z,2.40
2019-03-19T16:17:20.564Z,2.30
2019-03-19T16:19:48.960Z,2.27
2019-03-19T16:22:17.288Z,2.43
2019-03-19T16:24:45.650Z,2.27
2019-03-19T16:27:14.015Z,2.20
2019-03-19T16:29:42.350Z,1.77
2019-03-19T16:32:10.798Z,2.17
2019-03-19T16:34:39.116Z,2.63
2019-03-19T16:37:07.619Z,2.43
2019-03-19T16:39:35.954Z,1.83
2019-03-19T16:42:04.400Z,2.13
2019-03-19T16:44:32.744Z,2.30
2019-03-19T16:47:01.059Z,2.17
2019-03-19T16:49:29.450Z,2.33
2019-03-19T16:51:57.728Z,2.27
2019-03-19T16:54:26.049Z,2.20
2019-03-19T16:56:54.345Z,2.10
2019-03-19T16:59:22.614Z,1.80
2019-03-19T17:02:01.109Z,2.40
2019-03-19T17:04:20.960Z,2.13
2019-03-19T17:06:49.289Z,2.27
2019-03-19T17:09:17.559Z,2.10
2019-03-19T17:11:46.014Z,2.07
2019-03-19T17:14:14.338Z,2.10
2019-03-19T17:16:42.654Z,2.23
2019-03-19T17:19:10.928Z,1.80
2019-03-19T17:21:39.275Z,2.37
2019-03-19T17:24:07.602Z,1.73
2019-03-19T17:26:35.948Z,2.07
2019-03-19T17:29:04.391Z,2.40
2019-03-19T17:31:32.701Z,2.17
2019-03-19T17:34:01.104Z,1.57
2019-03-19T17:36:29.369Z,1.90
2019-03-19T17:38:57.799Z,1.87
2019-03-19T17:41:26.139Z,1.87
2019-03-19T17:43:54.500Z,1.60
2019-03-19T17:46:22.889Z,1.97
2019-03-19T17:48:52.351Z,1.83
2019-03-19T17:51:20.772Z,1.97
2019-03-19T17:53:49.088Z,1.63
2019-03-19T17:56:17.380Z,1.93
2019-03-19T17:58:45.662Z,2.03
2019-03-19T18:01:17.712Z,1.93
2019-03-19T18:03:43.951Z,1.90
2019-03-19T18:06:12.285Z,2.70
2019-03-19T18:08:40.580Z,3.77
2019-03-19T18:11:08.958Z,1.50
2019-03-19T18:13:37.225Z,1.63
2019-03-19T18:16:05.505Z,1.90
2019-03-19T18:18:33.807Z,1.70
2019-03-19T18:21:02.160Z,6.20
2019-03-19T18:23:30.445Z,5.90
2019-03-19T18:25:58.834Z,2.73
2019-03-19T18:28:27.189Z,1.90
2019-03-19T18:30:55.547Z,2.87
2019-03-19T18:33:23.892Z,1.90
2019-03-19T18:35:55.159Z,1.87
2019-03-19T18:38:22.498Z,1.83
2019-03-19T18:40:50.805Z,1.50
2019-03-19T18:43:19.074Z,2.73
2019-03-19T18:45:47.371Z,2.13
2019-03-19T18:48:15.708Z,1.70
2019-03-19T18:50:44.164Z,2.00
2019-03-19T18:53:12.514Z,2.33
2019-03-19T18:55:40.805Z,2.10
2019-03-19T18:58:09.190Z,2.77
2019-03-19T19:00:37.456Z,4.63
2019-03-19T19:03:05.832Z,4.00
2019-03-19T19:05:34.204Z,3.13
2019-03-19T19:08:02.582Z,3.70
2019-03-19T19:10:30.875Z,3.63
2019-03-19T19:12:59.292Z,3.63
2019-03-19T19:15:27.697Z,6.07
2019-03-19T19:17:56.042Z,3.50
2019-03-19T19:20:24.389Z,3.20
2019-03-19T19:22:52.678Z,2.40
2019-03-19T19:25:22.163Z,3.47
2019-03-19T19:27:50.550Z,3.03
2019-03-19T19:30:21.275Z,3.57
2019-03-19T19:33:00.495Z,3.47
2019-03-19T19:35:19.720Z,3.13
2019-03-19T19:37:48.213Z,3.20
2019-03-19T19:40:19.709Z,3.70
2019-03-19T19:42:48.242Z,4.13
2019-03-19T19:45:17.239Z,4.10
2019-03-19T19:47:45.524Z,4.10
2019-03-19T19:50:23.392Z,3.57
2019-03-19T19:52:51.768Z,3.03
2019-03-19T19:55:20.055Z,4.00
2019-03-19T19:57:48.397Z,4.47
2019-03-19T20:00:23.744Z,4.67
2019-03-19T20:02:52.098Z,4.17
2019-03-19T20:05:20.426Z,4.33
2019-03-19T20:07:48.693Z,3.77
2019-03-19T20:10:24.155Z,4.03
2019-03-19T20:12:52.414Z,3.30
2019-03-19T20:15:20.739Z,3.80
2019-03-19T20:17:49.055Z,3.57
2019-03-19T20:20:20.075Z,4.20
2019-03-19T20:22:48.339Z,4.07
2019-03-19T20:25:16.646Z,3.97
2019-03-19T20:27:44.994Z,4.63
2019-03-19T20:30:20.219Z,5.33
2019-03-19T20:32:48.473Z,5.57
2019-03-19T20:35:16.812Z,4.70
2019-03-19T20:37:45.089Z,5.00
2019-03-19T20:40:14.496Z,3.83
2019-03-19T20:42:42.793Z,3.83
2019-03-19T20:45:13.045Z,4.20
2019-03-19T20:47:41.324Z,3.50
2019-03-19T20:50:21.214Z,4.13
2019-03-19T20:52:49.589Z,3.50
2019-03-19T20:55:17.880Z,3.80
2019-03-19T20:57:46.224Z,3.47
2019-03-19T21:00:18.644Z,3.07
2019-03-19T21:02:46.987Z,3.20
2019-03-19T21:05:15.234Z,3.10
2019-03-19T21:07:43.525Z,3.80
2019-03-19T21:10:17.337Z,4.07
2019-03-19T21:12:45.693Z,3.97
2019-03-19T21:15:18.454Z,3.90
2019-03-19T21:17:47.694Z,3.73
2019-03-19T21:20:16.018Z,4.40
2019-03-19T21:22:44.339Z,4.23
2019-03-19T21:25:12.806Z,4.33
2019-03-19T21:27:41.125Z,4.40
2019-03-19T21:30:12.724Z,3.97
2019-03-19T21:32:41.178Z,3.90
2019-03-19T21:35:09.444Z,3.93
2019-03-19T21:37:37.745Z,4.00
2019-03-19T21:40:10.913Z,4.60
2019-03-19T21:42:39.277Z,3.63
2019-03-19T21:45:10.198Z,4.57
2019-03-19T21:47:38.618Z,6.17
2019-03-19T21:50:18.303Z,5.73
2019-03-19T21:52:46.665Z,5.17
2019-03-19T21:55:15.013Z,5.10
2019-03-19T21:57:43.314Z,4.83
2019-03-19T22:00:17.733Z,4.20
2019-03-19T22:02:46.042Z,4.57
2019-03-19T22:05:14.298Z,5.00
2019-03-19T22:07:42.588Z,4.30
2019-03-19T22:10:18.831Z,4.70
2019-03-19T22:12:49.249Z,5.70
2019-03-19T22:15:21.733Z,5.57
2019-03-19T22:17:50.080Z,4.57
2019-03-19T22:20:18.573Z,3.63
2019-03-19T22:22:46.945Z,4.17
2019-03-19T22:25:15.698Z,4.10
2019-03-19T22:27:44.129Z,3.70
2019-03-19T22:30:19.162Z,3.40
2019-03-19T22:32:47.422Z,3.73
2019-03-19T22:35:15.810Z,3.73
2019-03-19T22:37:44.125Z,4.23
2019-03-19T22:40:14.586Z,3.63
2019-03-19T22:42:42.884Z,4.10
2019-03-19T22:45:13.300Z,4.17
2019-03-19T22:47:41.617Z,4.30
2019-03-19T22:50:16.853Z,3.77
2019-03-19T22:52:45.164Z,3.77
2019-03-19T22:55:14.362Z,4.23
2019-03-19T22:57:42.673Z,3.77
2019-03-19T23:00:35.863Z,5.00
2019-03-19T23:03:04.518Z,4.77
2019-03-19T23:05:32.898Z,5.33
2019-03-19T23:08:01.178Z,5.53
2019-03-19T23:10:29.630Z,5.40
2019-03-19T23:12:58.043Z,6.23
2019-03-19T23:15:26.379Z,4.87
2019-03-19T23:17:54.639Z,5.47
2019-03-19T23:20:22.919Z,5.17
2019-03-19T23:22:51.202Z,4.50
2019-03-19T23:25:19.471Z,4.60
2019-03-19T23:27:47.787Z,4.47
2019-03-19T23:30:19.422Z,4.33
2019-03-19T23:32:47.853Z,4.53
2019-03-19T23:35:16.175Z,4.47
2019-03-19T23:37:44.543Z,4.03
2019-03-19T23:40:16.969Z,3.40
2019-03-19T23:42:45.249Z,3.80
2019-03-19T23:45:13.698Z,3.23
2019-03-19T23:47:42.015Z,3.33
2019-03-19T23:50:12.089Z,3.63
2019-03-19T23:52:40.440Z,3.10
2019-03-19T23:55:09.541Z,3.40
2019-03-19T23:57:37.841Z,3.83
